createdAt,value
2022-12-20T00:01:32.221Z,18.47
2022-12-20T00:04:02.381Z,18.52
2022-12-20T00:06:29.718Z,18.49
2022-12-20T00:08:59.406Z,18.50
2022-12-20T00:11:27.405Z,18.51
2022-12-20T00:13:54.288Z,18.50
2022-12-20T00:16:23.776Z,18.51
2022-12-20T00:18:56.635Z,18.51
2022-12-20T00:21:24.254Z,18.51
2022-12-20T00:23:54.861Z,18.48
2022-12-20T00:26:25.892Z,18.49
2022-12-20T00:28:53.577Z,18.46
2022-12-20T00:31:23.239Z,18.50
2022-12-20T00:33:52.685Z,18.50
2022-12-20T00:36:20.215Z,18.50
2022-12-20T00:38:48.439Z,18.50
2022-12-20T00:41:19.026Z,18.50
2022-12-20T00:43:46.114Z,18.48
2022-12-20T00:46:14.387Z,18.50
2022-12-20T00:48:41.865Z,18.39
2022-12-20T00:51:12.011Z,18.50
2022-12-20T00:53:39.981Z,18.50
2022-12-20T00:56:07.343Z,18.50
2022-12-20T00:58:35.467Z,18.50
2022-12-20T01:01:05.300Z,18.49
2022-12-20T01:03:32.519Z,18.49
2022-12-20T01:06:01.246Z,18.49
2022-12-20T01:08:29.491Z,18.44
2022-12-20T01:11:06.546Z,18.48
2022-12-20T01:13:35.567Z,18.48
2022-12-20T01:16:11.423Z,18.48
2022-12-20T01:18:38.969Z,18.48
2022-12-20T01:21:08.899Z,18.47
2022-12-20T01:23:35.973Z,18.41
2022-12-20T01:26:05.071Z,18.48
2022-12-20T01:28:32.876Z,18.48
2022-12-20T01:31:00.059Z,18.47
2022-12-20T01:33:27.014Z,18.47
2022-12-20T01:36:01.695Z,18.47
2022-12-20T01:38:29.446Z,18.47
2022-12-20T01:40:57.526Z,18.45
2022-12-20T01:43:25.801Z,18.47
2022-12-20T01:45:52.865Z,18.45
2022-12-20T01:48:26.215Z,18.46
2022-12-20T01:50:53.736Z,18.48
2022-12-20T01:53:24.361Z,18.45
2022-12-20T01:55:51.170Z,18.46
2022-12-20T01:58:19.604Z,18.46
2022-12-20T02:00:46.751Z,18.40
2022-12-20T02:03:15.065Z,18.37
2022-12-20T02:05:45.340Z,18.46
2022-12-20T02:08:14.575Z,18.39
2022-12-20T02:11:16.364Z,18.47
2022-12-20T02:14:09.060Z,18.46
2022-12-20T02:16:45.872Z,18.46
2022-12-20T02:19:53.915Z,18.46
2022-12-20T02:22:39.175Z,18.45
2022-12-20T02:25:14.379Z,18.45
2022-12-20T02:27:54.744Z,18.45
2022-12-20T02:30:26.882Z,18.36
2022-12-20T02:33:02.222Z,18.40
2022-12-20T02:35:37.303Z,18.44
2022-12-20T02:38:29.909Z,18.38
2022-12-20T02:41:16.938Z,18.43
2022-12-20T02:44:07.302Z,18.42
2022-12-20T02:46:35.725Z,18.40
2022-12-20T02:49:20.201Z,18.39
2022-12-20T02:51:49.273Z,18.39
2022-12-20T02:54:16.763Z,18.37
2022-12-20T02:56:54.653Z,18.37
2022-12-20T02:59:36.348Z,18.38
2022-12-20T03:02:03.850Z,18.36
2022-12-20T03:04:36.991Z,18.37
2022-12-20T03:07:09.269Z,18.37
2022-12-20T03:09:37.839Z,18.37
2022-12-20T03:12:05.045Z,18.37
2022-12-20T03:14:35.565Z,18.36
2022-12-20T03:17:05.506Z,18.37
2022-12-20T03:19:32.222Z,18.37
2022-12-20T03:21:59.324Z,18.36
2022-12-20T03:24:26.135Z,18.36
2022-12-20T03:26:53.909Z,18.37
2022-12-20T03:29:23.671Z,18.37
2022-12-20T03:31:50.365Z,18.31
2022-12-20T03:34:17.157Z,18.37
2022-12-20T03:36:44.096Z,18.37
2022-12-20T03:39:10.816Z,18.35
2022-12-20T03:41:39.081Z,18.36
2022-12-20T03:44:07.888Z,18.28
2022-12-20T03:46:35.577Z,18.22
2022-12-20T03:49:03.517Z,18.38
2022-12-20T03:51:30.890Z,18.11
2022-12-20T03:53:57.634Z,18.37
2022-12-20T03:56:36.441Z,18.37
2022-12-20T03:59:04.266Z,18.36
2022-12-20T04:01:31.489Z,18.36
2022-12-20T04:03:58.916Z,18.36
2022-12-20T04:06:25.540Z,18.35
2022-12-20T04:08:52.215Z,18.36
2022-12-20T04:11:26.054Z,18.36
2022-12-20T04:13:59.617Z,18.36
2022-12-20T04:16:29.400Z,18.09
2022-12-20T04:18:56.839Z,18.34
2022-12-20T04:21:28.981Z,18.29
2022-12-20T04:23:58.351Z,18.32
2022-12-20T04:26:31.249Z,18.35
2022-12-20T04:28:59.840Z,18.35
2022-12-20T04:31:26.874Z,18.30
2022-12-20T04:33:54.440Z,18.28
2022-12-20T04:36:21.516Z,18.35
2022-12-20T04:38:50.712Z,18.33
2022-12-20T04:41:23.456Z,18.34
2022-12-20T04:43:58.419Z,18.33
2022-12-20T04:46:33.783Z,18.34
2022-12-20T04:49:01.637Z,18.34
2022-12-20T04:51:31.151Z,18.34
2022-12-20T04:53:57.911Z,18.35
2022-12-20T04:56:33.037Z,18.35
2022-12-20T04:59:05.807Z,18.36
2022-12-20T05:01:33.353Z,18.36
2022-12-20T05:04:00.529Z,18.37
2022-12-20T05:06:31.400Z,18.36
2022-12-20T05:08:58.459Z,18.31
2022-12-20T05:11:25.148Z,18.36
2022-12-20T05:13:52.055Z,18.03
2022-12-20T05:16:20.883Z,18.37
2022-12-20T05:18:49.474Z,18.38
2022-12-20T05:21:35.741Z,18.38
2022-12-20T05:24:22.674Z,18.38
2022-12-20T05:26:58.659Z,18.38
2022-12-20T05:29:25.845Z,18.16
2022-12-20T05:31:52.735Z,18.41
2022-12-20T05:34:21.029Z,18.40
2022-12-20T05:36:52.530Z,18.42
2022-12-20T05:39:20.901Z,18.45
2022-12-20T05:41:49.420Z,18.45
2022-12-20T05:44:17.339Z,18.45
2022-12-20T05:46:49.381Z,18.46
2022-12-20T05:49:21.709Z,18.48
2022-12-20T05:51:48.579Z,18.50
2022-12-20T05:54:22.807Z,18.51
2022-12-20T05:56:56.987Z,18.46
2022-12-20T05:59:32.041Z,18.53
2022-12-20T06:01:59.484Z,18.53
2022-12-20T06:04:26.837Z,18.55
2022-12-20T06:06:53.907Z,18.55
2022-12-20T06:09:20.517Z,18.59
2022-12-20T06:12:02.054Z,18.59
2022-12-20T06:14:29.574Z,18.62
2022-12-20T06:16:57.384Z,18.64
2022-12-20T06:19:24.135Z,18.65
2022-12-20T06:21:53.880Z,18.65
2022-12-20T06:24:27.944Z,18.67
2022-12-20T06:26:54.880Z,18.69
2022-12-20T06:29:21.476Z,18.70
2022-12-20T06:31:55.329Z,18.72
2022-12-20T06:34:22.172Z,18.72
2022-12-20T06:36:48.838Z,18.74
2022-12-20T06:39:22.443Z,18.74
2022-12-20T06:41:56.586Z,18.77
2022-12-20T06:44:23.295Z,18.81
2022-12-20T06:46:51.473Z,18.76
2022-12-20T06:49:18.899Z,18.80
2022-12-20T06:51:45.606Z,18.84
2022-12-20T06:54:12.553Z,18.84
2022-12-20T06:56:41.685Z,18.82
2022-12-20T06:59:11.066Z,18.88
2022-12-20T07:01:38.065Z,18.89
2022-12-20T07:04:05.040Z,18.91
2022-12-20T07:06:32.302Z,18.89
2022-12-20T07:08:59.460Z,18.81
2022-12-20T07:11:25.961Z,18.79
2022-12-20T07:13:56.969Z,18.89
2022-12-20T07:16:23.740Z,18.91
2022-12-20T07:18:55.321Z,18.93
2022-12-20T07:21:22.258Z,18.93
2022-12-20T07:23:49.306Z,18.95
2022-12-20T07:26:16.435Z,18.94
2022-12-20T07:28:43.683Z,18.95
2022-12-20T07:31:10.331Z,18.97
2022-12-20T07:33:37.438Z,18.89
2022-12-20T07:36:10.324Z,18.98
2022-12-20T07:38:37.295Z,18.98
2022-12-20T07:41:08.782Z,18.99
2022-12-20T07:43:35.794Z,19.00
2022-12-20T07:46:04.014Z,19.02
2022-12-20T07:48:30.810Z,19.02
2022-12-20T07:51:02.868Z,19.00
2022-12-20T07:53:33.014Z,19.04
2022-12-20T07:56:02.340Z,19.04
2022-12-20T07:58:30.495Z,19.06
2022-12-20T08:00:58.028Z,19.07
2022-12-20T08:03:31.867Z,19.06
2022-12-20T08:06:03.956Z,19.05
2022-12-20T08:08:33.974Z,19.03
2022-12-20T08:11:02.337Z,19.03
2022-12-20T08:13:29.010Z,19.00
2022-12-20T08:15:55.628Z,19.01
2022-12-20T08:18:22.367Z,19.05
2022-12-20T08:20:48.934Z,19.05
2022-12-20T08:23:15.790Z,19.10
2022-12-20T08:25:42.602Z,19.12
2022-12-20T08:28:09.676Z,19.14
2022-12-20T08:30:36.444Z,19.17
2022-12-20T08:33:03.136Z,19.18
2022-12-20T08:35:29.680Z,19.21
2022-12-20T08:37:56.842Z,19.23
2022-12-20T08:40:23.372Z,19.24
2022-12-20T08:42:50.003Z,19.28
2022-12-20T08:45:16.774Z,19.23
2022-12-20T08:47:43.413Z,19.32
2022-12-20T08:50:12.994Z,19.32
2022-12-20T08:52:40.196Z,19.35
2022-12-20T08:55:06.994Z,19.36
2022-12-20T08:57:33.592Z,19.37
2022-12-20T09:00:00.173Z,19.34
2022-12-20T09:02:27.179Z,19.40
2022-12-20T09:04:53.812Z,19.43
2022-12-20T09:07:20.501Z,19.45
2022-12-20T09:09:47.390Z,19.40
2022-12-20T09:12:14.123Z,19.47
2022-12-20T09:14:40.738Z,19.46
2022-12-20T09:17:07.349Z,19.49
2022-12-20T09:19:33.907Z,19.49
2022-12-20T09:22:00.618Z,19.51
2022-12-20T09:24:27.122Z,19.53
2022-12-20T09:26:53.714Z,19.54
2022-12-20T09:29:27.024Z,19.55
2022-12-20T09:31:55.093Z,19.56
2022-12-20T09:34:21.673Z,19.56
2022-12-20T09:36:48.204Z,19.53
2022-12-20T09:39:14.723Z,19.60
2022-12-20T09:41:44.025Z,19.62
2022-12-20T09:44:25.989Z,19.63
2022-12-20T09:47:10.041Z,19.60
2022-12-20T09:49:41.799Z,19.65
2022-12-20T09:52:11.144Z,19.66
2022-12-20T09:54:57.739Z,19.65
2022-12-20T09:57:49.111Z,19.67
2022-12-20T10:00:18.938Z,19.67
2022-12-20T10:03:09.534Z,19.65
2022-12-20T10:05:47.082Z,19.69
2022-12-20T10:08:28.883Z,19.70
2022-12-20T10:11:17.310Z,19.70
2022-12-20T10:14:01.381Z,19.67
2022-12-20T10:16:34.672Z,19.72
2022-12-20T10:21:14.675Z,19.75
2022-12-20T10:24:01.563Z,19.76
2022-12-20T10:26:28.891Z,19.74
2022-12-20T10:28:55.432Z,19.77
2022-12-20T10:31:22.329Z,19.77
2022-12-20T10:33:48.979Z,19.79
2022-12-20T10:36:23.960Z,19.80
2022-12-20T10:38:53.545Z,19.81
2022-12-20T10:41:32.331Z,19.81
2022-12-20T10:44:18.307Z,19.74
2022-12-20T10:46:48.779Z,19.85
2022-12-20T10:49:32.271Z,19.89
2022-12-20T10:52:08.082Z,19.92
2022-12-20T10:54:42.856Z,19.93
2022-12-20T10:57:26.237Z,19.92
2022-12-20T11:00:00.116Z,19.92
2022-12-20T11:02:41.549Z,19.91
2022-12-20T11:05:12.295Z,19.92
2022-12-20T11:08:24.533Z,19.92
2022-12-20T11:10:38.559Z,19.93
2022-12-20T11:13:08.161Z,19.94
2022-12-20T11:15:36.618Z,19.97
2022-12-20T11:18:17.380Z,19.97
2022-12-20T11:21:14.585Z,19.99
2022-12-20T11:23:58.502Z,19.98
2022-12-20T11:26:39.980Z,20.01
2022-12-20T11:29:40.547Z,19.98
2022-12-20T11:32:22.145Z,20.02
2022-12-20T11:35:07.537Z,20.02
2022-12-20T11:37:44.754Z,20.00
2022-12-20T11:40:31.725Z,20.04
2022-12-20T11:43:17.038Z,20.05
2022-12-20T11:46:20.943Z,20.05
2022-12-20T11:49:02.562Z,20.04
2022-12-20T11:51:55.874Z,20.05
2022-12-20T11:54:39.888Z,20.05
2022-12-20T11:57:29.459Z,20.06
2022-12-20T12:00:02.719Z,20.07
2022-12-20T12:03:15.054Z,20.09
2022-12-20T12:05:45.759Z,20.09
2022-12-20T12:08:19.667Z,20.09
2022-12-20T12:10:59.365Z,20.10
2022-12-20T12:13:33.806Z,19.85
2022-12-20T12:16:09.611Z,20.10
2022-12-20T12:18:38.580Z,20.06
2022-12-20T12:21:09.586Z,20.10
2022-12-20T12:24:00.856Z,20.09
2022-12-20T12:26:40.841Z,20.09
2022-12-20T12:29:16.107Z,20.07
2022-12-20T12:31:55.646Z,20.08
2022-12-20T12:34:25.482Z,20.07
2022-12-20T12:37:00.801Z,20.07
2022-12-20T12:39:45.447Z,20.06
2022-12-20T12:42:20.974Z,20.07
2022-12-20T12:44:54.769Z,20.07
2022-12-20T12:47:34.937Z,20.03
2022-12-20T12:50:03.058Z,20.08
2022-12-20T12:54:56.902Z,20.06
2022-12-20T12:57:23.587Z,20.09
2022-12-20T12:59:51.784Z,20.09
2022-12-20T13:02:20.534Z,20.08
2022-12-20T13:04:58.883Z,20.09
2022-12-20T13:07:35.167Z,20.10
2022-12-20T13:10:24.884Z,20.11
2022-12-20T13:12:52.481Z,20.11
2022-12-20T13:15:21.761Z,20.11
2022-12-20T13:17:57.352Z,20.11
2022-12-20T13:20:31.176Z,20.11
2022-12-20T13:23:13.066Z,20.11
2022-12-20T13:25:53.720Z,20.10
2022-12-20T13:28:22.896Z,20.10
2022-12-20T13:31:01.342Z,20.09
2022-12-20T13:33:44.284Z,20.10
2022-12-20T13:36:10.753Z,20.10
2022-12-20T13:38:56.942Z,20.10
2022-12-20T13:41:35.938Z,20.10
2022-12-20T13:44:14.734Z,20.10
2022-12-20T13:46:47.918Z,20.10
2022-12-20T13:49:40.491Z,20.10
2022-12-20T13:52:25.976Z,20.10
2022-12-20T13:54:56.915Z,20.07
2022-12-20T13:57:53.710Z,20.10
2022-12-20T14:00:25.986Z,20.10
2022-12-20T14:02:53.662Z,20.11
2022-12-20T14:05:28.789Z,20.02
2022-12-20T14:08:10.324Z,20.13
2022-12-20T14:10:40.045Z,20.12
2022-12-20T14:13:35.880Z,20.12
2022-12-20T14:16:15.366Z,20.13
2022-12-20T14:18:42.383Z,20.13
2022-12-20T14:21:10.059Z,20.12
2022-12-20T14:23:41.643Z,20.16
2022-12-20T14:26:18.363Z,20.14
2022-12-20T14:28:53.023Z,20.14
2022-12-20T14:31:31.875Z,20.13
2022-12-20T14:34:17.226Z,20.14
2022-12-20T14:36:46.490Z,20.14
2022-12-20T14:39:33.721Z,20.13
2022-12-20T14:44:27.286Z,20.14
2022-12-20T14:46:56.597Z,20.14
2022-12-20T14:49:32.478Z,20.12
2022-12-20T14:52:14.855Z,20.13
2022-12-20T14:55:10.497Z,20.13
2022-12-20T14:57:37.436Z,20.14
2022-12-20T15:00:15.631Z,20.14
2022-12-20T15:02:54.312Z,20.14
2022-12-20T15:05:33.557Z,20.13
2022-12-20T15:08:21.664Z,20.12
2022-12-20T15:11:00.120Z,20.12
2022-12-20T15:13:35.326Z,20.13
2022-12-20T15:16:14.531Z,20.12
2022-12-20T15:18:41.212Z,20.13
2022-12-20T15:21:15.158Z,20.13
2022-12-20T15:23:51.935Z,20.12
2022-12-20T15:26:21.610Z,20.11
2022-12-20T15:28:48.428Z,20.11
2022-12-20T15:31:18.072Z,20.12
2022-12-20T15:33:45.830Z,20.12
2022-12-20T15:36:23.733Z,20.11
2022-12-20T15:39:11.952Z,20.11
2022-12-20T15:41:43.654Z,20.04
2022-12-20T15:44:17.662Z,20.12
2022-12-20T15:46:44.729Z,20.13
2022-12-20T15:49:16.727Z,20.14
2022-12-20T15:51:44.941Z,20.13
2022-12-20T15:54:24.055Z,20.15
2022-12-20T15:59:40.269Z,20.14
2022-12-20T16:01:59.627Z,20.15
2022-12-20T16:04:30.601Z,20.10
2022-12-20T16:06:57.493Z,20.17
2022-12-20T16:09:25.862Z,20.18
2022-12-20T16:11:52.635Z,20.19
2022-12-20T16:14:21.195Z,20.17
2022-12-20T16:16:49.992Z,20.20
2022-12-20T16:19:17.163Z,20.23
2022-12-20T16:21:49.247Z,20.23
2022-12-20T16:24:18.537Z,20.24
2022-12-20T16:26:45.888Z,20.25
2022-12-20T16:29:12.599Z,20.26
2022-12-20T16:31:42.299Z,20.27
2022-12-20T16:34:16.830Z,20.27
2022-12-20T16:36:44.410Z,20.27
2022-12-20T16:39:11.258Z,20.21
2022-12-20T16:41:41.093Z,20.28
2022-12-20T16:44:14.453Z,20.29
2022-12-20T16:46:41.623Z,20.29
2022-12-20T16:51:30.458Z,20.30
2022-12-20T16:54:19.000Z,20.30
2022-12-20T16:56:55.094Z,20.31
2022-12-20T16:59:23.397Z,20.30
2022-12-20T17:01:53.119Z,20.31
2022-12-20T17:04:23.359Z,20.28
2022-12-20T17:06:50.323Z,20.29
2022-12-20T17:09:18.366Z,20.26
2022-12-20T17:11:45.505Z,20.32
2022-12-20T17:14:15.100Z,20.33
2022-12-20T17:16:41.866Z,20.35
2022-12-20T17:19:12.650Z,20.35
2022-12-20T17:24:33.617Z,20.36
2022-12-20T17:27:00.324Z,20.36
2022-12-20T17:29:27.149Z,20.35
2022-12-20T17:31:54.081Z,20.37
2022-12-20T17:34:22.209Z,20.35
2022-12-20T17:36:50.986Z,20.35
2022-12-20T17:39:18.319Z,20.32
2022-12-20T17:41:45.314Z,20.35
2022-12-20T17:44:17.537Z,20.37
2022-12-20T17:46:44.210Z,20.36
2022-12-20T17:49:10.834Z,20.12
2022-12-20T17:51:38.223Z,20.36
2022-12-20T17:54:04.923Z,20.38
2022-12-20T17:56:34.291Z,20.38
2022-12-20T17:59:02.420Z,20.39
2022-12-20T18:01:31.984Z,20.38
2022-12-20T18:04:04.076Z,20.40
2022-12-20T18:06:34.513Z,20.41
2022-12-20T18:09:01.087Z,20.41
2022-12-20T18:11:28.934Z,20.41
2022-12-20T18:13:57.805Z,20.41
2022-12-20T18:16:29.976Z,20.40
2022-12-20T18:18:58.863Z,20.40
2022-12-20T18:21:26.653Z,20.41
2022-12-20T18:23:54.423Z,20.41
2022-12-20T18:26:29.566Z,20.40
2022-12-20T18:28:58.708Z,20.39
2022-12-20T18:31:27.337Z,20.37
2022-12-20T18:33:58.067Z,20.34
2022-12-20T18:36:27.639Z,20.35
2022-12-20T18:38:54.669Z,20.34
2022-12-20T18:41:25.100Z,20.26
2022-12-20T18:43:53.080Z,20.31
2022-12-20T18:46:22.349Z,20.30
2022-12-20T18:48:53.235Z,20.29
2022-12-20T18:51:28.639Z,20.25
2022-12-20T18:53:57.049Z,20.26
2022-12-20T18:56:29.553Z,20.25
2022-12-20T18:58:57.710Z,20.23
2022-12-20T19:01:29.604Z,20.23
2022-12-20T19:03:56.633Z,20.18
2022-12-20T19:08:55.637Z,20.22
2022-12-20T19:11:23.771Z,20.20
2022-12-20T19:13:51.592Z,20.20
2022-12-20T19:16:23.726Z,20.20
2022-12-20T19:18:51.262Z,20.21
2022-12-20T19:21:24.017Z,20.20
2022-12-20T19:23:52.844Z,20.19
2022-12-20T19:26:21.215Z,20.18
2022-12-20T19:28:51.457Z,20.17
2022-12-20T19:31:23.758Z,20.17
2022-12-20T19:33:56.927Z,20.10
2022-12-20T19:36:26.795Z,20.13
2022-12-20T19:39:04.221Z,20.13
2022-12-20T19:41:32.286Z,20.08
2022-12-20T19:43:59.855Z,20.10
2022-12-20T19:46:29.695Z,20.04
2022-12-20T19:48:58.549Z,20.07
2022-12-20T19:51:26.934Z,20.08
2022-12-20T19:53:54.869Z,20.09
2022-12-20T19:56:25.187Z,20.09
2022-12-20T19:58:53.647Z,20.08
2022-12-20T20:01:23.218Z,20.09
2022-12-20T20:03:50.027Z,20.09
2022-12-20T20:06:16.609Z,20.10
2022-12-20T20:08:43.334Z,20.12
2022-12-20T20:11:10.645Z,20.10
2022-12-20T20:13:38.780Z,20.16
2022-12-20T20:16:09.309Z,20.20
2022-12-20T20:18:37.839Z,20.13
2022-12-20T20:21:09.615Z,20.20
2022-12-20T20:23:37.978Z,20.20
2022-12-20T20:26:14.019Z,20.22
2022-12-20T20:28:45.415Z,20.21
2022-12-20T20:31:14.785Z,20.15
2022-12-20T20:33:42.247Z,20.19
2022-12-20T20:36:13.581Z,20.20
2022-12-20T20:38:40.353Z,20.19
2022-12-20T20:41:07.047Z,20.14
2022-12-20T20:43:36.784Z,20.16
2022-12-20T20:46:06.909Z,20.15
2022-12-20T20:48:34.517Z,20.10
2022-12-20T20:51:01.434Z,20.12
2022-12-20T20:53:33.410Z,20.11
2022-12-20T20:56:05.103Z,20.10
2022-12-20T20:58:32.842Z,20.08
2022-12-20T21:01:01.538Z,20.06
2022-12-20T21:03:30.290Z,20.06
2022-12-20T21:06:34.947Z,19.78
2022-12-20T21:08:44.624Z,20.03
2022-12-20T21:11:11.935Z,20.01
2022-12-20T21:13:38.736Z,20.01
2022-12-20T21:16:16.005Z,19.99
2022-12-20T21:18:42.824Z,19.99
2022-12-20T21:21:11.058Z,19.97
2022-12-20T21:23:39.085Z,19.96
2022-12-20T21:26:05.906Z,19.94
2022-12-20T21:28:32.636Z,19.95
2022-12-20T21:31:05.987Z,19.94
2022-12-20T21:33:32.825Z,19.93
2022-12-20T21:36:01.966Z,19.88
2022-12-20T21:38:29.171Z,19.91
2022-12-20T21:41:00.713Z,19.91
2022-12-20T21:43:28.034Z,19.91
2022-12-20T21:45:54.823Z,19.90
2022-12-20T21:50:39.550Z,19.88
2022-12-20T21:53:06.121Z,19.88
2022-12-20T21:55:32.668Z,19.87
2022-12-20T21:57:59.298Z,19.85
2022-12-20T22:00:25.862Z,19.84
2022-12-20T22:02:52.622Z,19.84
2022-12-20T22:05:19.913Z,19.85
2022-12-20T22:07:47.111Z,19.84
2022-12-20T22:10:13.672Z,19.87
2022-12-20T22:12:40.272Z,19.82
2022-12-20T22:15:07.366Z,19.90
2022-12-20T22:20:02.295Z,19.92
2022-12-20T22:22:28.922Z,19.93
2022-12-20T22:24:55.437Z,19.94
2022-12-20T22:27:22.081Z,19.95
2022-12-20T22:29:48.584Z,19.94
2022-12-20T22:32:15.188Z,19.95
2022-12-20T22:34:41.793Z,19.96
2022-12-20T22:37:08.329Z,19.97
2022-12-20T22:39:34.987Z,19.97
2022-12-20T22:42:01.994Z,19.97
2022-12-20T22:44:28.473Z,19.98
2022-12-20T22:46:55.057Z,19.99
2022-12-20T22:49:21.577Z,20.00
2022-12-20T22:51:59.361Z,20.01
2022-12-20T22:54:32.793Z,20.00
2022-12-20T22:56:59.295Z,20.02
2022-12-20T22:59:26.134Z,20.03
2022-12-20T23:01:53.140Z,20.03
2022-12-20T23:04:19.952Z,20.06
2022-12-20T23:06:46.446Z,20.06
2022-12-20T23:09:13.219Z,20.08
2022-12-20T23:11:58.266Z,20.09
2022-12-20T23:14:43.544Z,20.08
2022-12-20T23:17:12.477Z,20.08
2022-12-20T23:19:57.676Z,20.08
2022-12-20T23:22:43.099Z,20.10
2022-12-20T23:25:11.862Z,20.10
2022-12-20T23:27:40.086Z,20.12
2022-12-20T23:30:08.648Z,20.14
2022-12-20T23:32:35.686Z,20.16
2022-12-20T23:35:08.316Z,20.15
2022-12-20T23:37:38.831Z,20.16
2022-12-20T23:40:06.799Z,20.15
2022-12-20T23:42:33.515Z,20.17
2022-12-20T23:45:00.098Z,20.18
2022-12-20T23:47:26.768Z,20.19
2022-12-20T23:49:53.308Z,20.17
2022-12-20T23:52:19.989Z,20.19
2022-12-20T23:54:46.482Z,20.17
2022-12-20T23:57:13.896Z,20.18
2022-12-20T23:59:40.520Z,20.17
